Pas de vigilance météorologique particulière.   -   Il n'y a aucun avertissement

Nearby METAR Reports

 

LEZL - Sevilla, Spain
Distance from station: ENE 8km
Mise jour: 19/06/2018 22:00
clair
clair
 Wind from SSO
Vent: SSO 7 km/h
Temprature: 30°C
Point de rose: 13°C
Humidit: 35%
Baromtre: 1014 hPa
Rsum: clair
Visibility: greater than 10 km
2018/06/19 20:00 LEZL 192000Z 21004KT 180V250 CAVOK 30/13 Q1014 NOSIG
LEMO - Morn, Spain
Distance from station: SE 43km
Mise jour: 19/06/2018 22:00
clair
clair
 Wind from OSO
Vent: OSO 9 km/h
Temprature: 27°C
Point de rose: 11°C
Humidit: 37%
Baromtre: 1015 hPa
Rsum: clair
Visibility: greater than 10 km
2018/06/19 20:00 LEMO 192000Z 24005KT 160V270 CAVOK 27/11 Q1015 NOSIG
LEJR - Jerz, Spain
Distance from station: S 71km
Mise jour: 19/06/2018 22:00
clair
clair
 Wind from E
Vent: E 15 km/h
Temprature: 26°C
Point de rose: 11°C
Humidit: 39%
Baromtre: 1014 hPa
Rsum: clair
Visibility: greater than 10 km
2018/06/19 20:00 LEJR 192000Z 10008KT 060V140 CAVOK 26/11 Q1014
 
LERT - Rota, Spain
Distance from station: SSO 89km
Mise jour: 19/06/2018 22:00
clair
clair
 Wind from ESE
Vent: ESE 31 km/h, Rafale: 54 km/h
Temprature: 26°C
Point de rose: 12°C
Humidit: 42%
Baromtre: 1014 hPa
Rsum: clair
Visibility: greater than 10 km
2018/06/19 20:00 LERT 192000Z 12017G29KT 080V150 CAVOK 26/12 Q1014 NOSIG
LEMG - Mlaga, Spain
Distance from station: ESE 157km
Mise jour: 19/06/2018 22:00
clair
clair
 Wind from E
Vent: E 6 km/h
Temprature: 22°C
Point de rose: 16°C
Humidit: 69%
Baromtre: 1019 hPa
Rsum: clair
Visibility: greater than 10 km
2018/06/19 20:00 LEMG 192000Z 10003KT CAVOK 22/16 Q1019 NOSIG
LEBA - Crdoba, Spain
Distance from station: ENE 115km
Mise jour: 19/06/2018 22:00
clair
clair
 Wind from O
Vent: O 4 km/h
Temprature: 28°C
Point de rose: 10°C
Humidit: 32%
Baromtre: 1015 hPa
Clouds: clair
Visibility: 10 km
2018/06/19 20:00 LEBA 192000Z AUTO 26002KT 9999 NCD 28/10 Q1015
 
LEGR - Granada, Spain
Distance from station: E 198km
Mise jour: 19/06/2018 22:00
clair
clair
 Wind from varies
Vent: varies 4 km/h
Temprature: 25°C
Point de rose: 11°C
Humidit: 42%
Baromtre: 1018 hPa
Rsum: clair
Visibility: greater than 10 km
2018/06/19 20:00 LEGR 192000Z VRB02KT CAVOK 25/11 Q1018
LEAM - Almera, Spain
Distance from station: E 326km
Mise jour: 19/06/2018 22:00
clair
clair
 Wind from ENE
Vent: ENE 26 km/h
Temprature: 25°C
Point de rose: 14°C
Humidit: 51%
Baromtre: 1018 hPa
Rsum: clair
Visibility: greater than 10 km
2018/06/19 20:00 LEAM 192000Z 07014KT CAVOK 25/14 Q1018
LEMD - Madrid/Barajas, Spain
Distance from station: NNE 402km
Mise jour: 19/06/2018 22:00
clair
clair
 Wind from varies
Vent: varies 4 km/h
Temprature: 30°C
Point de rose: 12°C
Humidit: 33%
Baromtre: 1018 hPa
Rsum: clair
Visibility: greater than 10 km
2018/06/19 20:00 LEMD 192000Z VRB02KT CAVOK 30/12 Q1018 NOSIG
 
LEVD - Valladolid, Spain
Distance from station: N 492km
Mise jour: 19/06/2018 21:30
clair
clair
 Wind from SO
Vent: SO 4 km/h
Temprature: 25°C
Point de rose: 14°C
Humidit: 51%
Baromtre: 1020 hPa
Rsum: clair
Visibility: greater than 10 km
2018/06/19 19:30 LEVD 191930Z 22002KT CAVOK 25/14 Q1020
LEBL - Barcelona, Spain
Distance from station: NE 816km
Mise jour: 19/06/2018 22:00
clair
clair
 Wind from SSO
Vent: SSO 15 km/h
Temprature: 23°C
Point de rose: 16°C
Humidit: 65%
Baromtre: 1019 hPa
Rsum: clair
Visibility: greater than 10 km
2018/06/19 20:00 LEBL 192000Z 21008KT CAVOK 23/16 Q1019 NOSIG
LEVC - Valencia, Spain
Distance from station: ENE 535km
Mise jour: 19/06/2018 22:00
clair
clair
 Wind from ESE
Vent: ESE 9 km/h
Temprature: 24°C
Point de rose: 16°C
Humidit: 61%
Baromtre: 1019 hPa
Rsum: clair
Visibility: greater than 10 km
2018/06/19 20:00 LEVC 192000Z 11005KT 080V140 CAVOK 24/16 Q1019 NOSIG